• Join FlightAware (Why Join?)
  • Login
  • US Flag 
Rudolph Flight #1: Arrived! 
11:34AM EST


 

Airport Tracker/Info


-or-


 

Live Flight TrackerFlight Track Log ✈ UAL1116 ✈ 09-Jan-2014 ✈ KBOS - KEWR

Flight Track Log - Related Links

Times and Time Zones

All times are in EST time to prevent confusion due to time zone crossing. See the UAL1116 flight status page for this flight to view local times or setup timezone preferences in your user account.

Time Position Orientation Groundspeed Altitude Reporting Facility
EST Latitude Longitude Course Direction KTS MPH feet Rate Location/Type
06:37PM 42.3500 -71.0167 144° Southeast 150 173 900  Level KA90
06:37PM 42.3333 -71.0000 144° Southeast 177 204 2,200 3,300 Climbing KA90
06:39PM 42.3261 -70.8486 94° East 238 274 9,900 3,120 Climbing Boston Center
06:40PM 42.3175 -70.7547 97° East 275 316 12,400 2,220 Climbing Boston Center
06:41PM 42.2361 -70.7364 171° South 336 387 14,500 1,740 Climbing Boston Center
06:42PM 42.1969 -70.8714 249° West 375 432 16,000 720 Climbing Boston Center
06:43PM 42.1783 -71.0047 259° West 366 421 16,000  Level Boston Center
06:44PM 42.1608 -71.1400 260° West 368 423 16,000  Level Boston Center
06:46PM 42.1408 -71.2850 260° West 367 422 16,000  Level Boston Center
06:47PM 42.1228 -71.4197 260° West 367 422 16,000  Level Boston Center
06:48PM 42.1047 -71.5539 260° West 367 422 16,000  Level Boston Center
06:49PM 42.0847 -71.6964 259° West 363 418 16,000  Level Boston Center
06:50PM 42.0650 -71.8319 259° West 370 426 16,000  Level Boston Center
06:51PM 42.0450 -71.9708 259° West 372 428 16,000  Level Boston Center
06:52PM 42.0253 -72.1061 259° West 370 426 16,000  Level Boston Center
06:53PM 42.0058 -72.2417 259° West 370 426 16,000 -60 Level Boston Center
06:54PM 41.9847 -72.3872 259° West 369 425 15,900 -60 Descending Boston Center
06:55PM 41.9656 -72.5233 259° West 371 427 15,900  Level Boston Center
06:56PM 41.9458 -72.6606 259° West 374 430 15,900  Level Boston Center
06:57PM 41.9158 -72.7961 253° West 370 426 15,900  Level Boston Center
06:58PM 41.8850 -72.9281 253° West 372 428 15,900  Level Boston Center
06:59PM 41.8517 -73.0697 253° West 371 427 15,900  Level Boston Center
07:00PM 41.8192 -73.2017 252° West 372 428 15,900  Level Boston Center
07:01PM 41.7872 -73.3350 252° West 378 435 15,900  Level Boston Center
07:02PM 41.7528 -73.4706 251° West 375 432 15,900  Level Boston Center
07:03PM 41.7225 -73.5950 252° West 352 405 15,900  Level Boston Center
07:04PM 41.6953 -73.7031 251° West 286 329 15,900 -300 Level Boston Center
07:05PM 41.6714 -73.8008 252° West 278 320 15,400 -780 Descending Boston Center
07:06PM 41.6575 -73.8975 259° West 265 305 14,400 -1,020 Descending Boston Center
07:07PM 41.6592 -74.0044 271° West 267 307 13,400 -1,020 Descending Boston Center
07:08PM 41.6631 -74.1033 273° West 269 310 12,400 -960 Descending Boston Center
07:09PM 41.6667 -74.2028 273° West 269 310 11,400 -960 Descending Boston Center
07:10PM 41.6361 -74.2864 244° Southwest 267 307 10,500 -960 Descending Boston Center
07:11PM 41.5658 -74.3161 198° South 268 308 9,500 -1,020 Descending Boston Center
07:12PM 41.4972 -74.3497 200° South 265 305 8,500 -1,020 Descending Boston Center
07:13PM 41.4244 -74.3856 200° South 261 300 7,400 -720 Descending Boston Center
07:14PM 41.3500 -74.4167 197° South 253 291 7,000 -480 Descending New York TRACON
07:16PM 41.2167 -74.4000 175° South 250 288 6,000 -600 Descending New York TRACON
07:17PM 41.1500 -74.3667 159° South 230 265 5,300 -420 Descending New York TRACON
07:19PM 41.0500 -74.2667 143° Southeast 218 251 4,800 -480 Descending New York TRACON
07:20PM 41.0167 -74.2167 131° Southeast 213 245 4,000 -480 Descending New York TRACON
07:21PM 40.9667 -74.1667 143° Southeast 208 239 3,900 -540 Descending New York TRACON
07:22PM 40.9167 -74.1333 153° Southeast 210 242 3,000 -480 Descending New York TRACON
07:23PM 40.8667 -74.0833 143° Southeast 192 221 3,000 -420 Level New York TRACON
07:25PM 40.7833 -74.1167 197° South 180 207 1,800 -720 Descending New York TRACON
07:26PM 40.7333 -74.1333 194° South 142 163 900 -900 Descending New York TRACON
07:28PM 40.6925 -74.1687 213° Southwest  Level Estimated
07:35PM 40.6925 -74.1687 95° East  Level Estimated
07:36PM 40.6925 -74.1687 95° East  Level Estimated